sensor_id;sensor_type;location;lat;lon;timestamp;P1;durP1;ratioP1;P2;durP2;ratioP2
351;SDS011;164;50.784;6.496;2023-02-28T00:00:36;4.68;;;4.38;;
351;SDS011;164;50.784;6.496;2023-02-28T00:03:05;3.78;;;3.60;;
351;SDS011;164;50.784;6.496;2023-02-28T00:05:32;4.88;;;4.13;;
351;SDS011;164;50.784;6.496;2023-02-28T00:08:00;4.70;;;3.42;;
351;SDS011;164;50.784;6.496;2023-02-28T00:10:34;5.28;;;4.38;;
351;SDS011;164;50.784;6.496;2023-02-28T00:13:02;4.43;;;3.58;;
351;SDS011;164;50.784;6.496;2023-02-28T00:15:29;3.85;;;3.65;;
351;SDS011;164;50.784;6.496;2023-02-28T00:18:00;3.10;;;2.90;;
351;SDS011;164;50.784;6.496;2023-02-28T00:20:29;5.72;;;3.92;;
351;SDS011;164;50.784;6.496;2023-02-28T00:22:56;3.55;;;3.10;;
351;SDS011;164;50.784;6.496;2023-02-28T00:25:24;4.20;;;3.80;;
351;SDS011;164;50.784;6.496;2023-02-28T00:27:52;3.95;;;3.22;;
351;SDS011;164;50.784;6.496;2023-02-28T00:30:20;5.20;;;4.90;;
351;SDS011;164;50.784;6.496;2023-02-28T00:32:47;7.10;;;3.40;;
351;SDS011;164;50.784;6.496;2023-02-28T00:35:14;4.38;;;4.07;;
351;SDS011;164;50.784;6.496;2023-02-28T00:37:44;4.32;;;3.88;;
351;SDS011;164;50.784;6.496;2023-02-28T00:40:11;3.55;;;3.35;;
351;SDS011;164;50.784;6.496;2023-02-28T00:42:38;4.93;;;4.47;;
351;SDS011;164;50.784;6.496;2023-02-28T00:45:07;3.90;;;3.40;;
351;SDS011;164;50.784;6.496;2023-02-28T00:47:34;4.25;;;3.97;;
351;SDS011;164;50.784;6.496;2023-02-28T00:50:01;3.47;;;3.22;;
351;SDS011;164;50.784;6.496;2023-02-28T00:52:29;3.65;;;3.45;;
351;SDS011;164;50.784;6.496;2023-02-28T00:54:58;4.53;;;3.53;;
351;SDS011;164;50.784;6.496;2023-02-28T00:57:28;3.92;;;3.72;;
351;SDS011;164;50.784;6.496;2023-02-28T00:59:55;4.22;;;3.70;;
351;SDS011;164;50.784;6.496;2023-02-28T01:02:24;4.10;;;3.22;;
351;SDS011;164;50.784;6.496;2023-02-28T01:04:51;5.13;;;3.63;;
351;SDS011;164;50.784;6.496;2023-02-28T01:07:18;2.88;;;2.67;;
351;SDS011;164;50.784;6.496;2023-02-28T01:09:46;3.28;;;3.08;;
351;SDS011;164;50.784;6.496;2023-02-28T01:12:15;6.50;;;4.40;;
351;SDS011;164;50.784;6.496;2023-02-28T01:14:43;5.32;;;4.20;;
351;SDS011;164;50.784;6.496;2023-02-28T01:17:10;4.40;;;3.40;;
351;SDS011;164;50.784;6.496;2023-02-28T01:19:37;4.28;;;3.78;;
351;SDS011;164;50.784;6.496;2023-02-28T01:22:06;4.00;;;3.40;;
351;SDS011;164;50.784;6.496;2023-02-28T01:24:33;4.05;;;3.85;;
351;SDS011;164;50.784;6.496;2023-02-28T01:27:00;7.90;;;4.47;;
351;SDS011;164;50.784;6.496;2023-02-28T01:29:28;3.25;;;3.05;;
351;SDS011;164;50.784;6.496;2023-02-28T01:31:56;3.33;;;3.13;;
351;SDS011;164;50.784;6.496;2023-02-28T01:34:24;3.95;;;3.80;;
351;SDS011;164;50.784;6.496;2023-02-28T01:36:51;4.57;;;4.28;;
351;SDS011;164;50.784;6.496;2023-02-28T01:39:18;4.35;;;3.67;;
351;SDS011;164;50.784;6.496;2023-02-28T01:42:05;3.55;;;3.35;;
351;SDS011;164;50.784;6.496;2023-02-28T01:47:19;3.72;;;3.53;;
351;SDS011;164;50.784;6.496;2023-02-28T01:49:47;4.25;;;3.85;;
351;SDS011;164;50.784;6.496;2023-02-28T01:52:16;3.90;;;3.20;;
351;SDS011;164;50.784;6.496;2023-02-28T01:54:44;3.13;;;2.80;;
351;SDS011;164;50.784;6.496;2023-02-28T01:57:14;4.72;;;3.83;;
351;SDS011;164;50.784;6.496;2023-02-28T01:59:44;3.63;;;3.42;;
351;SDS011;164;50.784;6.496;2023-02-28T02:02:13;4.43;;;4.13;;
351;SDS011;164;50.784;6.496;2023-02-28T02:04:43;3.75;;;3.58;;
351;SDS011;164;50.784;6.496;2023-02-28T02:07:13;4.60;;;3.92;;
351;SDS011;164;50.784;6.496;2023-02-28T02:09:41;5.55;;;3.83;;
351;SDS011;164;50.784;6.496;2023-02-28T02:12:10;3.75;;;3.55;;
351;SDS011;164;50.784;6.496;2023-02-28T02:14:42;3.97;;;3.78;;
351;SDS011;164;50.784;6.496;2023-02-28T02:17:14;3.92;;;3.72;;
351;SDS011;164;50.784;6.496;2023-02-28T02:20:05;3.47;;;3.30;;
351;SDS011;164;50.784;6.496;2023-02-28T02:22:46;3.92;;;3.72;;
351;SDS011;164;50.784;6.496;2023-02-28T02:25:21;2.85;;;2.65;;
351;SDS011;164;50.784;6.496;2023-02-28T02:30:41;5.50;;;4.03;;
351;SDS011;164;50.784;6.496;2023-02-28T02:33:16;3.58;;;3.20;;
351;SDS011;164;50.784;6.496;2023-02-28T02:35:52;5.35;;;3.13;;
351;SDS011;164;50.784;6.496;2023-02-28T02:38:24;3.45;;;3.25;;
351;SDS011;164;50.784;6.496;2023-02-28T02:46:06;11.50;;;4.70;;
351;SDS011;164;50.784;6.496;2023-02-28T02:48:37;4.85;;;3.72;;
351;SDS011;164;50.784;6.496;2023-02-28T02:51:07;3.70;;;3.25;;
351;SDS011;164;50.784;6.496;2023-02-28T02:53:38;3.53;;;3.33;;
351;SDS011;164;50.784;6.496;2023-02-28T02:56:07;4.10;;;3.47;;
351;SDS011;164;50.784;6.496;2023-02-28T02:58:36;3.47;;;3.05;;
351;SDS011;164;50.784;6.496;2023-02-28T03:01:07;3.95;;;3.38;;
351;SDS011;164;50.784;6.496;2023-02-28T03:03:34;3.00;;;2.80;;
351;SDS011;164;50.784;6.496;2023-02-28T03:06:02;6.32;;;3.83;;
351;SDS011;164;50.784;6.496;2023-02-28T03:08:34;3.50;;;3.30;;
351;SDS011;164;50.784;6.496;2023-02-28T03:11:02;3.97;;;3.78;;
351;SDS011;164;50.784;6.496;2023-02-28T03:13:34;5.13;;;3.00;;
351;SDS011;164;50.784;6.496;2023-02-28T03:16:12;3.80;;;3.22;;
351;SDS011;164;50.784;6.496;2023-02-28T03:18:40;3.88;;;3.70;;
351;SDS011;164;50.784;6.496;2023-02-28T03:21:12;3.60;;;3.13;;
351;SDS011;164;50.784;6.496;2023-02-28T03:23:45;3.90;;;3.35;;
351;SDS011;164;50.784;6.496;2023-02-28T03:26:17;4.03;;;3.78;;
351;SDS011;164;50.784;6.496;2023-02-28T03:28:50;4.70;;;3.58;;
351;SDS011;164;50.784;6.496;2023-02-28T03:31:20;4.80;;;4.53;;
351;SDS011;164;50.784;6.496;2023-02-28T03:33:51;4.30;;;4.00;;
351;SDS011;164;50.784;6.496;2023-02-28T03:36:21;5.13;;;3.95;;
351;SDS011;164;50.784;6.496;2023-02-28T03:38:53;4.90;;;4.35;;
351;SDS011;164;50.784;6.496;2023-02-28T03:41:21;4.15;;;3.92;;
351;SDS011;164;50.784;6.496;2023-02-28T03:43:49;3.70;;;3.50;;
351;SDS011;164;50.784;6.496;2023-02-28T03:46:18;3.78;;;3.58;;
351;SDS011;164;50.784;6.496;2023-02-28T03:48:47;3.75;;;3.55;;
351;SDS011;164;50.784;6.496;2023-02-28T03:51:16;3.83;;;3.65;;
351;SDS011;164;50.784;6.496;2023-02-28T03:53:48;5.07;;;4.30;;
351;SDS011;164;50.784;6.496;2023-02-28T03:56:19;4.00;;;3.80;;
351;SDS011;164;50.784;6.496;2023-02-28T03:58:47;3.95;;;2.67;;
351;SDS011;164;50.784;6.496;2023-02-28T04:01:16;5.57;;;3.88;;
351;SDS011;164;50.784;6.496;2023-02-28T04:03:45;4.15;;;3.95;;
351;SDS011;164;50.784;6.496;2023-02-28T04:06:14;6.63;;;4.50;;
351;SDS011;164;50.784;6.496;2023-02-28T04:08:43;3.72;;;3.53;;
351;SDS011;164;50.784;6.496;2023-02-28T04:11:13;4.35;;;3.92;;
351;SDS011;164;50.784;6.496;2023-02-28T04:13:45;5.25;;;4.40;;
351;SDS011;164;50.784;6.496;2023-02-28T04:16:12;4.43;;;4.13;;
351;SDS011;164;50.784;6.496;2023-02-28T04:24:27;5.72;;;4.15;;
351;SDS011;164;50.784;6.496;2023-02-28T04:26:55;6.72;;;4.43;;
351;SDS011;164;50.784;6.496;2023-02-28T04:29:24;4.43;;;4.13;;
351;SDS011;164;50.784;6.496;2023-02-28T04:31:52;4.75;;;3.60;;
351;SDS011;164;50.784;6.496;2023-02-28T04:34:19;4.50;;;4.20;;
351;SDS011;164;50.784;6.496;2023-02-28T04:36:46;6.47;;;3.58;;
351;SDS011;164;50.784;6.496;2023-02-28T04:39:15;6.43;;;5.25;;
351;SDS011;164;50.784;6.496;2023-02-28T04:41:43;4.25;;;3.60;;
351;SDS011;164;50.784;6.496;2023-02-28T04:44:10;3.90;;;3.70;;
351;SDS011;164;50.784;6.496;2023-02-28T04:46:39;4.30;;;3.95;;
351;SDS011;164;50.784;6.496;2023-02-28T04:49:06;6.70;;;4.85;;
351;SDS011;164;50.784;6.496;2023-02-28T04:51:33;4.28;;;3.90;;
351;SDS011;164;50.784;6.496;2023-02-28T04:54:00;4.15;;;3.92;;
351;SDS011;164;50.784;6.496;2023-02-28T04:56:28;4.63;;;3.53;;
351;SDS011;164;50.784;6.496;2023-02-28T04:58:55;4.28;;;3.38;;
351;SDS011;164;50.784;6.496;2023-02-28T05:01:23;3.53;;;3.35;;
351;SDS011;164;50.784;6.496;2023-02-28T05:03:53;5.85;;;4.10;;
351;SDS011;164;50.784;6.496;2023-02-28T05:06:21;4.97;;;3.63;;
351;SDS011;164;50.784;6.496;2023-02-28T05:08:49;4.72;;;4.43;;
351;SDS011;164;50.784;6.496;2023-02-28T05:11:17;4.53;;;3.70;;
351;SDS011;164;50.784;6.496;2023-02-28T05:13:44;3.72;;;3.22;;
351;SDS011;164;50.784;6.496;2023-02-28T05:16:12;6.43;;;3.88;;
351;SDS011;164;50.784;6.496;2023-02-28T05:18:39;4.45;;;4.15;;
351;SDS011;164;50.784;6.496;2023-02-28T05:21:14;3.88;;;3.67;;
351;SDS011;164;50.784;6.496;2023-02-28T05:23:50;4.15;;;3.40;;
351;SDS011;164;50.784;6.496;2023-02-28T05:26:17;5.05;;;4.15;;
351;SDS011;164;50.784;6.496;2023-02-28T05:28:44;3.95;;;3.75;;
351;SDS011;164;50.784;6.496;2023-02-28T05:31:12;5.53;;;3.90;;
351;SDS011;164;50.784;6.496;2023-02-28T05:33:39;4.57;;;4.28;;
351;SDS011;164;50.784;6.496;2023-02-28T05:36:06;4.03;;;3.83;;
351;SDS011;164;50.784;6.496;2023-02-28T05:38:36;4.00;;;3.80;;
351;SDS011;164;50.784;6.496;2023-02-28T05:41:04;3.78;;;3.58;;
351;SDS011;164;50.784;6.496;2023-02-28T05:43:32;3.58;;;3.42;;
351;SDS011;164;50.784;6.496;2023-02-28T05:46:01;3.38;;;3.17;;
351;SDS011;164;50.784;6.496;2023-02-28T05:48:28;5.15;;;4.30;;
351;SDS011;164;50.784;6.496;2023-02-28T05:50:56;5.07;;;4.78;;
351;SDS011;164;50.784;6.496;2023-02-28T05:53:24;4.78;;;4.47;;
351;SDS011;164;50.784;6.496;2023-02-28T05:55:52;4.55;;;4.25;;
351;SDS011;164;50.784;6.496;2023-02-28T05:58:19;4.55;;;4.25;;
351;SDS011;164;50.784;6.496;2023-02-28T06:00:47;4.07;;;3.85;;
351;SDS011;164;50.784;6.496;2023-02-28T06:03:14;3.90;;;3.70;;
351;SDS011;164;50.784;6.496;2023-02-28T06:05:42;4.65;;;4.35;;
351;SDS011;164;50.784;6.496;2023-02-28T06:08:09;4.40;;;4.10;;
351;SDS011;164;50.784;6.496;2023-02-28T06:10:36;5.70;;;4.35;;
351;SDS011;164;50.784;6.496;2023-02-28T06:13:05;4.57;;;4.07;;
351;SDS011;164;50.784;6.496;2023-02-28T06:15:32;5.43;;;5.07;;
351;SDS011;164;50.784;6.496;2023-02-28T06:17:59;5.90;;;5.60;;
351;SDS011;164;50.784;6.496;2023-02-28T06:20:27;4.78;;;4.55;;
351;SDS011;164;50.784;6.496;2023-02-28T06:22:55;6.65;;;4.28;;
351;SDS011;164;50.784;6.496;2023-02-28T06:25:23;5.38;;;4.88;;
351;SDS011;164;50.784;6.496;2023-02-28T06:27:51;4.40;;;4.15;;
351;SDS011;164;50.784;6.496;2023-02-28T06:30:19;5.88;;;4.82;;
351;SDS011;164;50.784;6.496;2023-02-28T06:32:49;5.65;;;4.20;;
351;SDS011;164;50.784;6.496;2023-02-28T06:35:17;4.38;;;4.07;;
351;SDS011;164;50.784;6.496;2023-02-28T06:37:44;4.43;;;4.13;;
351;SDS011;164;50.784;6.496;2023-02-28T06:40:12;4.88;;;4.57;;
351;SDS011;164;50.784;6.496;2023-02-28T06:42:39;6.05;;;4.82;;
351;SDS011;164;50.784;6.496;2023-02-28T06:45:06;9.02;;;6.15;;
351;SDS011;164;50.784;6.496;2023-02-28T06:47:36;9.23;;;4.88;;
351;SDS011;164;50.784;6.496;2023-02-28T06:50:04;4.53;;;4.22;;
351;SDS011;164;50.784;6.496;2023-02-28T06:52:31;8.50;;;6.40;;
351;SDS011;164;50.784;6.496;2023-02-28T06:55:01;7.88;;;5.80;;
351;SDS011;164;50.784;6.496;2023-02-28T06:57:29;6.78;;;5.70;;
351;SDS011;164;50.784;6.496;2023-02-28T06:59:57;6.35;;;5.97;;
351;SDS011;164;50.784;6.496;2023-02-28T07:02:25;8.02;;;6.30;;
351;SDS011;164;50.784;6.496;2023-02-28T07:04:54;6.93;;;6.53;;
351;SDS011;164;50.784;6.496;2023-02-28T07:07:21;7.43;;;6.07;;
351;SDS011;164;50.784;6.496;2023-02-28T07:09:48;6.72;;;6.32;;
351;SDS011;164;50.784;6.496;2023-02-28T07:12:15;7.07;;;6.60;;
351;SDS011;164;50.784;6.496;2023-02-28T07:14:42;7.60;;;7.20;;
351;SDS011;164;50.784;6.496;2023-02-28T07:17:10;9.57;;;9.07;;
351;SDS011;164;50.784;6.496;2023-02-28T07:19:37;6.97;;;6.57;;
351;SDS011;164;50.784;6.496;2023-02-28T07:22:06;7.70;;;7.30;;
351;SDS011;164;50.784;6.496;2023-02-28T07:24:33;7.00;;;6.30;;
351;SDS011;164;50.784;6.496;2023-02-28T07:27:00;7.03;;;6.63;;
351;SDS011;164;50.784;6.496;2023-02-28T07:29:28;6.93;;;6.43;;
351;SDS011;164;50.784;6.496;2023-02-28T07:31:55;9.07;;;7.35;;
351;SDS011;164;50.784;6.496;2023-02-28T07:34:22;7.05;;;6.65;;
351;SDS011;164;50.784;6.496;2023-02-28T07:36:52;7.78;;;7.38;;
351;SDS011;164;50.784;6.496;2023-02-28T07:47:20;9.05;;;8.55;;
351;SDS011;164;50.784;6.496;2023-02-28T07:49:47;8.55;;;8.13;;
351;SDS011;164;50.784;6.496;2023-02-28T07:52:15;8.27;;;7.40;;
351;SDS011;164;50.784;6.496;2023-02-28T07:54:42;13.23;;;8.77;;
351;SDS011;164;50.784;6.496;2023-02-28T07:57:09;16.92;;;14.98;;
351;SDS011;164;50.784;6.496;2023-02-28T07:59:36;12.35;;;10.55;;
351;SDS011;164;50.784;6.496;2023-02-28T08:02:04;11.52;;;8.68;;
351;SDS011;164;50.784;6.496;2023-02-28T08:04:36;8.18;;;7.78;;
351;SDS011;164;50.784;6.496;2023-02-28T08:07:04;6.95;;;6.55;;
351;SDS011;164;50.784;6.496;2023-02-28T08:09:31;6.18;;;5.50;;
351;SDS011;164;50.784;6.496;2023-02-28T08:11:59;6.85;;;6.45;;
351;SDS011;164;50.784;6.496;2023-02-28T08:14:26;8.38;;;7.93;;
351;SDS011;164;50.784;6.496;2023-02-28T08:16:53;7.10;;;6.70;;
351;SDS011;164;50.784;6.496;2023-02-28T08:19:22;7.70;;;7.30;;
351;SDS011;164;50.784;6.496;2023-02-28T08:21:51;6.50;;;6.10;;
351;SDS011;164;50.784;6.496;2023-02-28T08:24:18;6.80;;;6.40;;
351;SDS011;164;50.784;6.496;2023-02-28T08:26:46;5.88;;;5.57;;
351;SDS011;164;50.784;6.496;2023-02-28T08:29:13;6.68;;;5.30;;
351;SDS011;164;50.784;6.496;2023-02-28T08:31:40;5.25;;;4.95;;
351;SDS011;164;50.784;6.496;2023-02-28T08:34:08;5.43;;;5.13;;
351;SDS011;164;50.784;6.496;2023-02-28T08:36:36;5.65;;;5.35;;
351;SDS011;164;50.784;6.496;2023-02-28T08:39:04;4.93;;;4.63;;
351;SDS011;164;50.784;6.496;2023-02-28T08:41:33;5.20;;;4.90;;
351;SDS011;164;50.784;6.496;2023-02-28T08:44:00;5.00;;;4.70;;
351;SDS011;164;50.784;6.496;2023-02-28T08:46:28;6.70;;;6.30;;
351;SDS011;164;50.784;6.496;2023-02-28T08:48:56;5.35;;;5.05;;
351;SDS011;164;50.784;6.496;2023-02-28T08:51:26;4.95;;;4.65;;
351;SDS011;164;50.784;6.496;2023-02-28T08:53:53;5.13;;;4.80;;
351;SDS011;164;50.784;6.496;2023-02-28T08:56:23;4.15;;;3.92;;
351;SDS011;164;50.784;6.496;2023-02-28T08:58:50;3.58;;;3.38;;
351;SDS011;164;50.784;6.496;2023-02-28T09:01:20;4.95;;;3.63;;
351;SDS011;164;50.784;6.496;2023-02-28T09:03:49;3.65;;;3.45;;
351;SDS011;164;50.784;6.496;2023-02-28T09:06:17;4.05;;;3.85;;
351;SDS011;164;50.784;6.496;2023-02-28T09:08:45;3.75;;;3.05;;
351;SDS011;164;50.784;6.496;2023-02-28T09:11:12;4.25;;;3.40;;
351;SDS011;164;50.784;6.496;2023-02-28T09:13:41;2.78;;;2.60;;
351;SDS011;164;50.784;6.496;2023-02-28T09:16:09;3.25;;;3.10;;
351;SDS011;164;50.784;6.496;2023-02-28T09:18:37;5.05;;;2.75;;
351;SDS011;164;50.784;6.496;2023-02-28T09:21:05;3.30;;;3.13;;
351;SDS011;164;50.784;6.496;2023-02-28T09:23:35;2.88;;;2.67;;
351;SDS011;164;50.784;6.496;2023-02-28T09:26:05;2.70;;;2.50;;
351;SDS011;164;50.784;6.496;2023-02-28T09:28:32;2.75;;;2.55;;
351;SDS011;164;50.784;6.496;2023-02-28T09:31:00;3.83;;;3.63;;
351;SDS011;164;50.784;6.496;2023-02-28T09:33:30;4.07;;;3.20;;
351;SDS011;164;50.784;6.496;2023-02-28T09:35:57;3.03;;;2.50;;
351;SDS011;164;50.784;6.496;2023-02-28T09:38:27;4.65;;;4.35;;
351;SDS011;164;50.784;6.496;2023-02-28T09:40:56;4.13;;;3.92;;
351;SDS011;164;50.784;6.496;2023-02-28T09:43:25;3.83;;;3.63;;
351;SDS011;164;50.784;6.496;2023-02-28T09:45:55;3.63;;;3.28;;
351;SDS011;164;50.784;6.496;2023-02-28T09:48:29;2.35;;;2.15;;
351;SDS011;164;50.784;6.496;2023-02-28T09:51:02;2.80;;;2.60;;
351;SDS011;164;50.784;6.496;2023-02-28T09:53:30;4.00;;;3.42;;
351;SDS011;164;50.784;6.496;2023-02-28T09:56:01;2.85;;;2.65;;
351;SDS011;164;50.784;6.496;2023-02-28T09:58:31;4.10;;;2.88;;
351;SDS011;164;50.784;6.496;2023-02-28T10:01:02;2.88;;;2.70;;
351;SDS011;164;50.784;6.496;2023-02-28T10:03:34;2.50;;;2.30;;
351;SDS011;164;50.784;6.496;2023-02-28T10:06:05;1.80;;;1.70;;
351;SDS011;164;50.784;6.496;2023-02-28T10:08:36;2.67;;;2.10;;
351;SDS011;164;50.784;6.496;2023-02-28T10:11:07;2.70;;;2.50;;
351;SDS011;164;50.784;6.496;2023-02-28T10:13:35;5.13;;;2.88;;
351;SDS011;164;50.784;6.496;2023-02-28T10:16:04;3.78;;;3.40;;
351;SDS011;164;50.784;6.496;2023-02-28T10:18:37;2.95;;;2.75;;
351;SDS011;164;50.784;6.496;2023-02-28T10:21:08;2.50;;;2.33;;
351;SDS011;164;50.784;6.496;2023-02-28T10:23:37;2.78;;;2.40;;
351;SDS011;164;50.784;6.496;2023-02-28T10:26:09;3.47;;;3.20;;
351;SDS011;164;50.784;6.496;2023-02-28T10:28:38;4.00;;;2.88;;
351;SDS011;164;50.784;6.496;2023-02-28T10:31:08;2.88;;;2.20;;
351;SDS011;164;50.784;6.496;2023-02-28T10:33:39;2.92;;;2.67;;
351;SDS011;164;50.784;6.496;2023-02-28T10:36:08;3.42;;;3.22;;
351;SDS011;164;50.784;6.496;2023-02-28T10:38:38;2.17;;;2.05;;
351;SDS011;164;50.784;6.496;2023-02-28T10:41:06;5.35;;;4.88;;
351;SDS011;164;50.784;6.496;2023-02-28T10:43:34;5.30;;;4.28;;
351;SDS011;164;50.784;6.496;2023-02-28T10:46:02;4.40;;;3.50;;
351;SDS011;164;50.784;6.496;2023-02-28T10:48:32;3.63;;;3.42;;
351;SDS011;164;50.784;6.496;2023-02-28T10:51:02;2.92;;;2.72;;
351;SDS011;164;50.784;6.496;2023-02-28T10:53:31;2.65;;;2.50;;
351;SDS011;164;50.784;6.496;2023-02-28T10:56:00;4.65;;;4.35;;
351;SDS011;164;50.784;6.496;2023-02-28T10:58:29;2.90;;;2.70;;
351;SDS011;164;50.784;6.496;2023-02-28T11:00:57;3.13;;;2.92;;
351;SDS011;164;50.784;6.496;2023-02-28T11:03:33;4.50;;;4.20;;
351;SDS011;164;50.784;6.496;2023-02-28T11:06:07;6.32;;;5.53;;
351;SDS011;164;50.784;6.496;2023-02-28T11:08:35;3.05;;;2.85;;
351;SDS011;164;50.784;6.496;2023-02-28T11:11:10;3.17;;;2.97;;
351;SDS011;164;50.784;6.496;2023-02-28T11:13:38;2.70;;;2.50;;
351;SDS011;164;50.784;6.496;2023-02-28T11:16:07;3.22;;;3.03;;
351;SDS011;164;50.784;6.496;2023-02-28T11:18:36;3.30;;;3.10;;
351;SDS011;164;50.784;6.496;2023-02-28T11:21:07;2.70;;;2.50;;
351;SDS011;164;50.784;6.496;2023-02-28T11:23:37;2.20;;;2.00;;
351;SDS011;164;50.784;6.496;2023-02-28T11:26:09;2.50;;;2.30;;
351;SDS011;164;50.784;6.496;2023-02-28T11:28:37;3.17;;;2.60;;
351;SDS011;164;50.784;6.496;2023-02-28T11:31:08;2.80;;;2.60;;
351;SDS011;164;50.784;6.496;2023-02-28T11:33:42;2.67;;;2.47;;
351;SDS011;164;50.784;6.496;2023-02-28T11:36:12;2.55;;;2.35;;
351;SDS011;164;50.784;6.496;2023-02-28T11:38:40;2.00;;;1.90;;
351;SDS011;164;50.784;6.496;2023-02-28T11:41:19;2.85;;;2.65;;
351;SDS011;164;50.784;6.496;2023-02-28T11:43:58;2.75;;;2.58;;
351;SDS011;164;50.784;6.496;2023-02-28T11:46:30;2.50;;;2.30;;
351;SDS011;164;50.784;6.496;2023-02-28T11:49:02;2.72;;;2.50;;
351;SDS011;164;50.784;6.496;2023-02-28T11:51:33;4.32;;;2.47;;
351;SDS011;164;50.784;6.496;2023-02-28T11:54:07;3.28;;;2.40;;
351;SDS011;164;50.784;6.496;2023-02-28T11:56:41;3.33;;;2.45;;
351;SDS011;164;50.784;6.496;2023-02-28T11:59:20;3.20;;;2.65;;
351;SDS011;164;50.784;6.496;2023-02-28T12:02:02;2.90;;;2.72;;
351;SDS011;164;50.784;6.496;2023-02-28T12:04:33;5.28;;;5.00;;
351;SDS011;164;50.784;6.496;2023-02-28T12:07:08;3.33;;;3.03;;
351;SDS011;164;50.784;6.496;2023-02-28T12:09:40;3.90;;;3.70;;
351;SDS011;164;50.784;6.496;2023-02-28T12:12:15;4.40;;;3.92;;
351;SDS011;164;50.784;6.496;2023-02-28T12:15:00;4.72;;;4.22;;
351;SDS011;164;50.784;6.496;2023-02-28T12:17:32;2.75;;;2.53;;
351;SDS011;164;50.784;6.496;2023-02-28T12:20:05;3.67;;;3.30;;
351;SDS011;164;50.784;6.496;2023-02-28T12:22:40;2.58;;;2.38;;
351;SDS011;164;50.784;6.496;2023-02-28T12:27:54;3.00;;;2.80;;
351;SDS011;164;50.784;6.496;2023-02-28T12:30:22;4.93;;;3.70;;
351;SDS011;164;50.784;6.496;2023-02-28T12:32:52;5.65;;;5.32;;
351;SDS011;164;50.784;6.496;2023-02-28T12:35:24;3.38;;;3.17;;
351;SDS011;164;50.784;6.496;2023-02-28T12:37:54;4.68;;;2.80;;
351;SDS011;164;50.784;6.496;2023-02-28T12:45:38;5.15;;;4.85;;
351;SDS011;164;50.784;6.496;2023-02-28T12:48:07;3.92;;;3.75;;
351;SDS011;164;50.784;6.496;2023-02-28T12:50:35;3.40;;;3.20;;
351;SDS011;164;50.784;6.496;2023-02-28T12:53:06;4.78;;;4.47;;
351;SDS011;164;50.784;6.496;2023-02-28T12:55:35;4.47;;;4.18;;
351;SDS011;164;50.784;6.496;2023-02-28T12:58:07;3.75;;;3.53;;
351;SDS011;164;50.784;6.496;2023-02-28T13:00:36;3.30;;;3.10;;
351;SDS011;164;50.784;6.496;2023-02-28T13:03:12;4.20;;;3.30;;
351;SDS011;164;50.784;6.496;2023-02-28T13:11:25;4.35;;;3.25;;
351;SDS011;164;50.784;6.496;2023-02-28T13:13:58;3.15;;;2.90;;
351;SDS011;164;50.784;6.496;2023-02-28T13:16:26;4.50;;;2.90;;
351;SDS011;164;50.784;6.496;2023-02-28T13:18:53;3.85;;;3.60;;
351;SDS011;164;50.784;6.496;2023-02-28T13:21:41;4.57;;;4.05;;
351;SDS011;164;50.784;6.496;2023-02-28T13:24:09;4.07;;;3.60;;
351;SDS011;164;50.784;6.496;2023-02-28T13:29:35;5.78;;;3.25;;
351;SDS011;164;50.784;6.496;2023-02-28T13:32:19;4.25;;;3.08;;
351;SDS011;164;50.784;6.496;2023-02-28T13:37:37;3.15;;;2.95;;
351;SDS011;164;50.784;6.496;2023-02-28T13:40:28;3.78;;;3.58;;
351;SDS011;164;50.784;6.496;2023-02-28T13:43:02;3.40;;;3.20;;
351;SDS011;164;50.784;6.496;2023-02-28T13:45:31;3.58;;;3.40;;
351;SDS011;164;50.784;6.496;2023-02-28T13:48:03;3.97;;;3.20;;
351;SDS011;164;50.784;6.496;2023-02-28T13:50:33;3.58;;;3.00;;
351;SDS011;164;50.784;6.496;2023-02-28T13:55:45;3.58;;;2.92;;
351;SDS011;164;50.784;6.496;2023-02-28T13:58:24;5.97;;;3.15;;
351;SDS011;164;50.784;6.496;2023-02-28T14:01:05;2.85;;;2.65;;
351;SDS011;164;50.784;6.496;2023-02-28T14:03:38;3.33;;;3.10;;
351;SDS011;164;50.784;6.496;2023-02-28T14:06:08;2.83;;;2.60;;
351;SDS011;164;50.784;6.496;2023-02-28T14:08:37;3.58;;;3.33;;
351;SDS011;164;50.784;6.496;2023-02-28T14:11:23;3.20;;;3.00;;
351;SDS011;164;50.784;6.496;2023-02-28T14:13:51;2.88;;;2.67;;
351;SDS011;164;50.784;6.496;2023-02-28T14:16:21;3.15;;;2.95;;
351;SDS011;164;50.784;6.496;2023-02-28T14:18:51;3.22;;;3.00;;
351;SDS011;164;50.784;6.496;2023-02-28T14:21:22;3.88;;;3.67;;
351;SDS011;164;50.784;6.496;2023-02-28T14:24:16;2.97;;;2.78;;
351;SDS011;164;50.784;6.496;2023-02-28T14:27:03;3.15;;;2.95;;
351;SDS011;164;50.784;6.496;2023-02-28T14:29:44;3.72;;;2.95;;
351;SDS011;164;50.784;6.496;2023-02-28T14:32:21;2.75;;;2.55;;
351;SDS011;164;50.784;6.496;2023-02-28T14:34:50;3.30;;;3.10;;
351;SDS011;164;50.784;6.496;2023-02-28T14:37:20;3.03;;;2.83;;
351;SDS011;164;50.784;6.496;2023-02-28T14:39:51;3.63;;;3.42;;
351;SDS011;164;50.784;6.496;2023-02-28T14:42:28;3.25;;;3.05;;
351;SDS011;164;50.784;6.496;2023-02-28T14:44:55;3.90;;;3.70;;
351;SDS011;164;50.784;6.496;2023-02-28T14:47:25;3.20;;;3.00;;
351;SDS011;164;50.784;6.496;2023-02-28T14:49:54;2.88;;;2.67;;
351;SDS011;164;50.784;6.496;2023-02-28T14:52:22;2.97;;;2.78;;
351;SDS011;164;50.784;6.496;2023-02-28T14:54:51;3.13;;;2.92;;
351;SDS011;164;50.784;6.496;2023-02-28T14:57:20;3.60;;;3.40;;
351;SDS011;164;50.784;6.496;2023-02-28T14:59:56;3.63;;;3.42;;
351;SDS011;164;50.784;6.496;2023-02-28T15:02:25;3.25;;;3.00;;
351;SDS011;164;50.784;6.496;2023-02-28T15:04:53;3.30;;;3.10;;
351;SDS011;164;50.784;6.496;2023-02-28T15:07:21;3.03;;;2.83;;
351;SDS011;164;50.784;6.496;2023-02-28T15:10:06;6.18;;;3.25;;
351;SDS011;164;50.784;6.496;2023-02-28T15:12:34;3.38;;;3.17;;
351;SDS011;164;50.784;6.496;2023-02-28T15:15:01;3.42;;;3.22;;
351;SDS011;164;50.784;6.496;2023-02-28T15:17:30;2.75;;;2.50;;
351;SDS011;164;50.784;6.496;2023-02-28T15:19:57;3.75;;;3.42;;
351;SDS011;164;50.784;6.496;2023-02-28T15:22:26;4.10;;;3.65;;
351;SDS011;164;50.784;6.496;2023-02-28T15:24:54;3.55;;;3.35;;
351;SDS011;164;50.784;6.496;2023-02-28T15:27:23;3.42;;;3.22;;
351;SDS011;164;50.784;6.496;2023-02-28T15:29:53;3.90;;;3.72;;
351;SDS011;164;50.784;6.496;2023-02-28T15:32:26;3.97;;;3.78;;
351;SDS011;164;50.784;6.496;2023-02-28T15:34:54;3.33;;;3.13;;
351;SDS011;164;50.784;6.496;2023-02-28T15:37:29;3.70;;;3.50;;
351;SDS011;164;50.784;6.496;2023-02-28T15:39:57;3.53;;;3.33;;
351;SDS011;164;50.784;6.496;2023-02-28T15:42:27;5.68;;;3.60;;
351;SDS011;164;50.784;6.496;2023-02-28T15:44:56;3.80;;;3.60;;
351;SDS011;164;50.784;6.496;2023-02-28T15:47:26;3.50;;;3.30;;
351;SDS011;164;50.784;6.496;2023-02-28T15:49:56;3.70;;;3.50;;
351;SDS011;164;50.784;6.496;2023-02-28T15:52:26;3.50;;;3.30;;
351;SDS011;164;50.784;6.496;2023-02-28T15:54:54;3.72;;;3.53;;
351;SDS011;164;50.784;6.496;2023-02-28T15:57:22;4.30;;;3.20;;
351;SDS011;164;50.784;6.496;2023-02-28T15:59:52;3.83;;;3.60;;
351;SDS011;164;50.784;6.496;2023-02-28T16:02:21;3.80;;;3.60;;
351;SDS011;164;50.784;6.496;2023-02-28T16:04:56;3.75;;;3.55;;
351;SDS011;164;50.784;6.496;2023-02-28T16:07:23;3.78;;;3.58;;
351;SDS011;164;50.784;6.496;2023-02-28T16:09:51;3.90;;;3.70;;
351;SDS011;164;50.784;6.496;2023-02-28T16:12:19;3.50;;;3.30;;
351;SDS011;164;50.784;6.496;2023-02-28T16:14:47;4.50;;;4.25;;
351;SDS011;164;50.784;6.496;2023-02-28T16:17:19;5.20;;;3.78;;
351;SDS011;164;50.784;6.496;2023-02-28T16:19:47;3.70;;;3.50;;
351;SDS011;164;50.784;6.496;2023-02-28T16:22:16;3.65;;;3.45;;
351;SDS011;164;50.784;6.496;2023-02-28T16:24:43;4.45;;;3.47;;
351;SDS011;164;50.784;6.496;2023-02-28T16:27:14;3.92;;;3.78;;
351;SDS011;164;50.784;6.496;2023-02-28T16:29:43;3.72;;;3.53;;
351;SDS011;164;50.784;6.496;2023-02-28T16:32:11;4.20;;;3.95;;
351;SDS011;164;50.784;6.496;2023-02-28T16:34:39;3.95;;;3.75;;
351;SDS011;164;50.784;6.496;2023-02-28T16:37:09;4.10;;;3.90;;
351;SDS011;164;50.784;6.496;2023-02-28T16:39:38;3.80;;;3.58;;
351;SDS011;164;50.784;6.496;2023-02-28T16:42:05;3.90;;;3.70;;
351;SDS011;164;50.784;6.496;2023-02-28T16:44:34;5.93;;;3.88;;
351;SDS011;164;50.784;6.496;2023-02-28T16:47:03;4.57;;;4.28;;